sensor_id;sensor_type;location;lat;lon;timestamp;temperature;humidity
21834;DHT22;11079;51.092;3.458;2023-01-29T00:01:24;4.40;99.90
21834;DHT22;11079;51.092;3.458;2023-01-29T00:03:51;4.30;99.90
21834;DHT22;11079;51.092;3.458;2023-01-29T00:06:17;4.20;99.90
21834;DHT22;11079;51.092;3.458;2023-01-29T00:08:47;4.20;99.90
21834;DHT22;11079;51.092;3.458;2023-01-29T00:11:13;4.40;99.90
21834;DHT22;11079;51.092;3.458;2023-01-29T00:13:39;4.20;99.90
21834;DHT22;11079;51.092;3.458;2023-01-29T00:16:04;4.20;99.90
21834;DHT22;11079;51.092;3.458;2023-01-29T00:18:31;4.20;99.90
21834;DHT22;11079;51.092;3.458;2023-01-29T00:20:56;4.40;99.90
21834;DHT22;11079;51.092;3.458;2023-01-29T00:23:23;4.30;99.90
21834;DHT22;11079;51.092;3.458;2023-01-29T00:25:49;4.30;99.90
21834;DHT22;11079;51.092;3.458;2023-01-29T00:28:17;4.20;99.90
21834;DHT22;11079;51.092;3.458;2023-01-29T00:30:47;4.00;99.90
21834;DHT22;11079;51.092;3.458;2023-01-29T00:33:12;4.00;99.90
21834;DHT22;11079;51.092;3.458;2023-01-29T00:35:42;4.00;99.90
21834;DHT22;11079;51.092;3.458;2023-01-29T00:38:11;3.80;99.90
21834;DHT22;11079;51.092;3.458;2023-01-29T00:40:37;3.60;99.90
21834;DHT22;11079;51.092;3.458;2023-01-29T00:43:50;3.70;99.90
21834;DHT22;11079;51.092;3.458;2023-01-29T00:46:35;3.70;99.90
21834;DHT22;11079;51.092;3.458;2023-01-29T00:49:02;3.70;99.90
21834;DHT22;11079;51.092;3.458;2023-01-29T00:51:29;3.80;99.90
21834;DHT22;11079;51.092;3.458;2023-01-29T00:53:56;4.00;99.90
21834;DHT22;11079;51.092;3.458;2023-01-29T00:56:24;4.30;99.90
21834;DHT22;11079;51.092;3.458;2023-01-29T00:58:49;4.10;99.90
21834;DHT22;11079;51.092;3.458;2023-01-29T01:01:15;4.00;99.90
21834;DHT22;11079;51.092;3.458;2023-01-29T01:03:41;4.10;99.90
21834;DHT22;11079;51.092;3.458;2023-01-29T01:06:11;3.70;99.90
21834;DHT22;11079;51.092;3.458;2023-01-29T01:08:36;3.40;99.90
21834;DHT22;11079;51.092;3.458;2023-01-29T01:11:21;3.40;99.90
21834;DHT22;11079;51.092;3.458;2023-01-29T01:13:46;3.60;99.90
21834;DHT22;11079;51.092;3.458;2023-01-29T01:16:16;3.50;99.90
21834;DHT22;11079;51.092;3.458;2023-01-29T01:18:44;3.50;99.90
21834;DHT22;11079;51.092;3.458;2023-01-29T01:21:13;3.60;99.90
21834;DHT22;11079;51.092;3.458;2023-01-29T01:23:39;3.70;99.90
21834;DHT22;11079;51.092;3.458;2023-01-29T01:26:25;3.70;99.90
21834;DHT22;11079;51.092;3.458;2023-01-29T01:28:53;3.50;99.90
21834;DHT22;11079;51.092;3.458;2023-01-29T01:31:19;3.50;99.90
21834;DHT22;11079;51.092;3.458;2023-01-29T01:33:45;3.40;99.90
21834;DHT22;11079;51.092;3.458;2023-01-29T01:36:11;3.40;99.90
21834;DHT22;11079;51.092;3.458;2023-01-29T01:38:38;3.20;99.90
21834;DHT22;11079;51.092;3.458;2023-01-29T01:41:16;3.10;99.90
21834;DHT22;11079;51.092;3.458;2023-01-29T01:44:02;2.90;99.90
21834;DHT22;11079;51.092;3.458;2023-01-29T01:46:35;3.00;99.90
21834;DHT22;11079;51.092;3.458;2023-01-29T01:51:38;3.30;99.90
21834;DHT22;11079;51.092;3.458;2023-01-29T01:54:10;3.40;99.90
21834;DHT22;11079;51.092;3.458;2023-01-29T01:56:45;3.40;99.90
21834;DHT22;11079;51.092;3.458;2023-01-29T01:59:16;3.60;99.90
21834;DHT22;11079;51.092;3.458;2023-01-29T02:01:46;3.60;99.90
21834;DHT22;11079;51.092;3.458;2023-01-29T02:04:21;3.80;99.90
21834;DHT22;11079;51.092;3.458;2023-01-29T02:07:08;4.00;99.90
21834;DHT22;11079;51.092;3.458;2023-01-29T02:10:05;4.20;99.90
21834;DHT22;11079;51.092;3.458;2023-01-29T02:12:33;4.30;99.90
21834;DHT22;11079;51.092;3.458;2023-01-29T02:14:59;4.30;99.90
21834;DHT22;11079;51.092;3.458;2023-01-29T02:17:25;4.20;99.90
21834;DHT22;11079;51.092;3.458;2023-01-29T02:22:55;4.10;99.90
21834;DHT22;11079;51.092;3.458;2023-01-29T02:28:34;3.60;99.90
21834;DHT22;11079;51.092;3.458;2023-01-29T02:31:28;3.60;99.90
21834;DHT22;11079;51.092;3.458;2023-01-29T02:34:21;3.50;99.90
21834;DHT22;11079;51.092;3.458;2023-01-29T02:37:07;3.50;99.90
21834;DHT22;11079;51.092;3.458;2023-01-29T02:39:50;3.60;99.90
21834;DHT22;11079;51.092;3.458;2023-01-29T02:43:01;3.50;99.90
21834;DHT22;11079;51.092;3.458;2023-01-29T02:45:46;3.50;99.90
21834;DHT22;11079;51.092;3.458;2023-01-29T02:48:20;3.50;99.90
21834;DHT22;11079;51.092;3.458;2023-01-29T02:50:53;3.40;99.90
21834;DHT22;11079;51.092;3.458;2023-01-29T02:53:26;3.50;99.90
21834;DHT22;11079;51.092;3.458;2023-01-29T02:56:20;3.50;99.90
21834;DHT22;11079;51.092;3.458;2023-01-29T02:59:03;3.40;99.90
21834;DHT22;11079;51.092;3.458;2023-01-29T03:01:44;3.40;99.90
21834;DHT22;11079;51.092;3.458;2023-01-29T03:04:18;3.50;99.90
21834;DHT22;11079;51.092;3.458;2023-01-29T03:06:50;3.50;99.90
21834;DHT22;11079;51.092;3.458;2023-01-29T03:09:32;3.40;99.90
21834;DHT22;11079;51.092;3.458;2023-01-29T03:12:08;3.70;99.90
21834;DHT22;11079;51.092;3.458;2023-01-29T03:14:46;3.60;99.90
21834;DHT22;11079;51.092;3.458;2023-01-29T03:17:36;3.40;99.90
21834;DHT22;11079;51.092;3.458;2023-01-29T03:20:07;3.20;99.90
21834;DHT22;11079;51.092;3.458;2023-01-29T03:22:36;3.10;99.90
21834;DHT22;11079;51.092;3.458;2023-01-29T03:25:04;3.00;99.90
21834;DHT22;11079;51.092;3.458;2023-01-29T03:27:56;3.10;99.90
21834;DHT22;11079;51.092;3.458;2023-01-29T03:31:02;3.10;99.90
21834;DHT22;11079;51.092;3.458;2023-01-29T03:33:59;3.10;99.90
21834;DHT22;11079;51.092;3.458;2023-01-29T03:36:33;3.10;99.90
21834;DHT22;11079;51.092;3.458;2023-01-29T03:39:08;3.10;99.90
21834;DHT22;11079;51.092;3.458;2023-01-29T03:41:47;3.10;99.90
21834;DHT22;11079;51.092;3.458;2023-01-29T03:44:27;3.10;99.90
21834;DHT22;11079;51.092;3.458;2023-01-29T03:47:22;3.30;99.90
21834;DHT22;11079;51.092;3.458;2023-01-29T03:50:04;3.10;99.90
21834;DHT22;11079;51.092;3.458;2023-01-29T03:52:52;3.10;99.90
21834;DHT22;11079;51.092;3.458;2023-01-29T03:55:28;3.10;99.90
21834;DHT22;11079;51.092;3.458;2023-01-29T03:58:39;3.10;99.90
21834;DHT22;11079;51.092;3.458;2023-01-29T04:03:41;3.10;99.90
21834;DHT22;11079;51.092;3.458;2023-01-29T04:06:21;3.20;99.90
21834;DHT22;11079;51.092;3.458;2023-01-29T04:08:58;3.20;99.90
21834;DHT22;11079;51.092;3.458;2023-01-29T04:11:27;3.30;99.90
21834;DHT22;11079;51.092;3.458;2023-01-29T04:13:55;3.50;99.90
21834;DHT22;11079;51.092;3.458;2023-01-29T04:16:30;3.70;99.90
21834;DHT22;11079;51.092;3.458;2023-01-29T04:18:58;3.70;99.90
21834;DHT22;11079;51.092;3.458;2023-01-29T04:21:24;3.90;99.90
21834;DHT22;11079;51.092;3.458;2023-01-29T04:23:50;3.90;99.90
21834;DHT22;11079;51.092;3.458;2023-01-29T04:29:40;3.70;99.90
21834;DHT22;11079;51.092;3.458;2023-01-29T04:37:37;3.90;99.90
21834;DHT22;11079;51.092;3.458;2023-01-29T04:40:13;3.90;99.90
21834;DHT22;11079;51.092;3.458;2023-01-29T04:43:13;3.90;99.90
21834;DHT22;11079;51.092;3.458;2023-01-29T04:48:22;3.90;99.90
21834;DHT22;11079;51.092;3.458;2023-01-29T04:53:24;4.20;99.90
21834;DHT22;11079;51.092;3.458;2023-01-29T04:59:03;4.00;99.90
21834;DHT22;11079;51.092;3.458;2023-01-29T05:01:30;3.90;99.90
21834;DHT22;11079;51.092;3.458;2023-01-29T05:04:01;3.80;99.90
21834;DHT22;11079;51.092;3.458;2023-01-29T05:06:29;3.60;99.90
21834;DHT22;11079;51.092;3.458;2023-01-29T05:08:56;3.70;99.90
21834;DHT22;11079;51.092;3.458;2023-01-29T05:11:24;3.70;99.90
21834;DHT22;11079;51.092;3.458;2023-01-29T05:13:50;3.60;99.90
21834;DHT22;11079;51.092;3.458;2023-01-29T05:16:20;3.50;99.90
21834;DHT22;11079;51.092;3.458;2023-01-29T05:18:48;3.60;99.90
21834;DHT22;11079;51.092;3.458;2023-01-29T05:21:14;3.40;99.90
21834;DHT22;11079;51.092;3.458;2023-01-29T05:23:40;3.40;99.90
21834;DHT22;11079;51.092;3.458;2023-01-29T05:26:18;3.30;99.90
21834;DHT22;11079;51.092;3.458;2023-01-29T05:29:03;3.20;99.90
21834;DHT22;11079;51.092;3.458;2023-01-29T05:31:28;3.20;99.90
21834;DHT22;11079;51.092;3.458;2023-01-29T05:33:54;3.10;99.90
21834;DHT22;11079;51.092;3.458;2023-01-29T05:36:20;3.10;99.90
21834;DHT22;11079;51.092;3.458;2023-01-29T05:38:46;3.20;99.90
21834;DHT22;11079;51.092;3.458;2023-01-29T05:41:12;3.40;99.90
21834;DHT22;11079;51.092;3.458;2023-01-29T05:43:38;3.50;99.90
21834;DHT22;11079;51.092;3.458;2023-01-29T05:46:04;3.50;99.90
21834;DHT22;11079;51.092;3.458;2023-01-29T05:48:30;3.30;99.90
21834;DHT22;11079;51.092;3.458;2023-01-29T05:51:00;3.20;99.90
21834;DHT22;11079;51.092;3.458;2023-01-29T05:53:27;3.30;99.90
21834;DHT22;11079;51.092;3.458;2023-01-29T05:55:53;3.30;99.90
21834;DHT22;11079;51.092;3.458;2023-01-29T05:58:21;3.20;99.90
21834;DHT22;11079;51.092;3.458;2023-01-29T06:00:48;3.30;99.90
21834;DHT22;11079;51.092;3.458;2023-01-29T06:03:13;3.20;99.90
21834;DHT22;11079;51.092;3.458;2023-01-29T06:05:39;3.10;99.90
21834;DHT22;11079;51.092;3.458;2023-01-29T06:08:05;3.00;99.90
21834;DHT22;11079;51.092;3.458;2023-01-29T06:10:31;3.00;99.90
21834;DHT22;11079;51.092;3.458;2023-01-29T06:12:57;3.10;99.90
21834;DHT22;11079;51.092;3.458;2023-01-29T06:15:22;3.20;99.90
21834;DHT22;11079;51.092;3.458;2023-01-29T06:17:52;3.00;99.90
21834;DHT22;11079;51.092;3.458;2023-01-29T06:20:18;3.00;99.90
21834;DHT22;11079;51.092;3.458;2023-01-29T06:22:44;3.00;99.90
21834;DHT22;11079;51.092;3.458;2023-01-29T06:25:09;3.20;99.90
21834;DHT22;11079;51.092;3.458;2023-01-29T06:27:35;3.20;99.90
21834;DHT22;11079;51.092;3.458;2023-01-29T06:30:02;3.20;99.90
21834;DHT22;11079;51.092;3.458;2023-01-29T06:32:28;3.20;99.90
21834;DHT22;11079;51.092;3.458;2023-01-29T06:34:53;3.30;99.90
21834;DHT22;11079;51.092;3.458;2023-01-29T06:37:19;3.20;99.90
21834;DHT22;11079;51.092;3.458;2023-01-29T06:39:45;3.30;99.90
21834;DHT22;11079;51.092;3.458;2023-01-29T06:42:10;3.30;99.90
21834;DHT22;11079;51.092;3.458;2023-01-29T06:44:36;3.40;99.90
21834;DHT22;11079;51.092;3.458;2023-01-29T06:47:01;3.30;99.90
21834;DHT22;11079;51.092;3.458;2023-01-29T06:49:27;3.10;99.90
21834;DHT22;11079;51.092;3.458;2023-01-29T06:51:53;3.20;99.90
21834;DHT22;11079;51.092;3.458;2023-01-29T06:54:18;3.10;99.90
21834;DHT22;11079;51.092;3.458;2023-01-29T06:56:44;3.30;99.90
21834;DHT22;11079;51.092;3.458;2023-01-29T06:59:10;3.20;99.90
21834;DHT22;11079;51.092;3.458;2023-01-29T07:01:40;3.30;99.90
21834;DHT22;11079;51.092;3.458;2023-01-29T07:04:06;3.30;99.90
21834;DHT22;11079;51.092;3.458;2023-01-29T07:06:32;3.40;99.90
21834;DHT22;11079;51.092;3.458;2023-01-29T07:08:57;3.40;99.90
21834;DHT22;11079;51.092;3.458;2023-01-29T07:11:23;3.30;99.90
21834;DHT22;11079;51.092;3.458;2023-01-29T07:13:49;3.30;99.90
21834;DHT22;11079;51.092;3.458;2023-01-29T07:16:15;3.10;99.90
21834;DHT22;11079;51.092;3.458;2023-01-29T07:18:40;3.10;99.90
21834;DHT22;11079;51.092;3.458;2023-01-29T07:21:06;3.20;99.90
21834;DHT22;11079;51.092;3.458;2023-01-29T07:23:33;3.10;99.90
21834;DHT22;11079;51.092;3.458;2023-01-29T07:26:03;3.20;99.90
21834;DHT22;11079;51.092;3.458;2023-01-29T07:28:29;3.30;99.90
21834;DHT22;11079;51.092;3.458;2023-01-29T07:30:58;3.60;99.90
21834;DHT22;11079;51.092;3.458;2023-01-29T07:33:24;3.50;99.90
21834;DHT22;11079;51.092;3.458;2023-01-29T07:35:50;3.40;99.90
21834;DHT22;11079;51.092;3.458;2023-01-29T07:38:15;3.40;99.90
21834;DHT22;11079;51.092;3.458;2023-01-29T07:40:41;3.40;99.90
21834;DHT22;11079;51.092;3.458;2023-01-29T07:43:08;3.30;99.90
21834;DHT22;11079;51.092;3.458;2023-01-29T07:45:36;3.30;99.90
21834;DHT22;11079;51.092;3.458;2023-01-29T07:48:04;3.30;99.90
21834;DHT22;11079;51.092;3.458;2023-01-29T07:50:31;3.30;99.90
21834;DHT22;11079;51.092;3.458;2023-01-29T07:52:57;3.40;99.90
21834;DHT22;11079;51.092;3.458;2023-01-29T07:55:23;3.40;99.90
21834;DHT22;11079;51.092;3.458;2023-01-29T07:58:02;3.30;99.90
21834;DHT22;11079;51.092;3.458;2023-01-29T08:00:28;3.30;99.90
21834;DHT22;11079;51.092;3.458;2023-01-29T08:03:03;3.50;99.90
21834;DHT22;11079;51.092;3.458;2023-01-29T08:05:29;3.60;99.90
21834;DHT22;11079;51.092;3.458;2023-01-29T08:07:55;3.70;99.90
21834;DHT22;11079;51.092;3.458;2023-01-29T08:10:21;3.60;99.90
21834;DHT22;11079;51.092;3.458;2023-01-29T08:12:46;3.50;99.90
21834;DHT22;11079;51.092;3.458;2023-01-29T08:15:12;3.60;99.90
21834;DHT22;11079;51.092;3.458;2023-01-29T08:17:37;3.60;99.90
21834;DHT22;11079;51.092;3.458;2023-01-29T08:20:05;3.60;99.90
21834;DHT22;11079;51.092;3.458;2023-01-29T08:22:31;3.60;99.90
21834;DHT22;11079;51.092;3.458;2023-01-29T08:24:57;3.50;99.90
21834;DHT22;11079;51.092;3.458;2023-01-29T08:27:22;3.60;99.90
21834;DHT22;11079;51.092;3.458;2023-01-29T08:29:49;3.70;99.90
21834;DHT22;11079;51.092;3.458;2023-01-29T08:32:15;3.60;99.90
21834;DHT22;11079;51.092;3.458;2023-01-29T08:34:40;3.70;99.90
21834;DHT22;11079;51.092;3.458;2023-01-29T08:37:06;3.70;99.90
21834;DHT22;11079;51.092;3.458;2023-01-29T08:39:32;3.70;99.90
21834;DHT22;11079;51.092;3.458;2023-01-29T08:41:57;3.70;99.90
21834;DHT22;11079;51.092;3.458;2023-01-29T08:44:23;3.80;99.90
21834;DHT22;11079;51.092;3.458;2023-01-29T08:46:48;3.90;99.90
21834;DHT22;11079;51.092;3.458;2023-01-29T08:49:14;3.90;99.90
21834;DHT22;11079;51.092;3.458;2023-01-29T08:51:40;3.80;99.90
21834;DHT22;11079;51.092;3.458;2023-01-29T08:54:05;3.70;99.90
21834;DHT22;11079;51.092;3.458;2023-01-29T08:56:31;3.70;99.90
21834;DHT22;11079;51.092;3.458;2023-01-29T08:58:56;3.80;99.90
21834;DHT22;11079;51.092;3.458;2023-01-29T09:01:22;3.80;99.90
21834;DHT22;11079;51.092;3.458;2023-01-29T09:03:48;3.70;99.90
21834;DHT22;11079;51.092;3.458;2023-01-29T09:06:14;3.80;99.90
21834;DHT22;11079;51.092;3.458;2023-01-29T09:08:40;3.70;99.90
21834;DHT22;11079;51.092;3.458;2023-01-29T09:11:06;3.80;99.90
21834;DHT22;11079;51.092;3.458;2023-01-29T09:13:32;4.00;99.90
21834;DHT22;11079;51.092;3.458;2023-01-29T09:16:02;4.20;99.90
21834;DHT22;11079;51.092;3.458;2023-01-29T09:18:29;4.10;99.90
21834;DHT22;11079;51.092;3.458;2023-01-29T09:20:56;4.10;99.90
21834;DHT22;11079;51.092;3.458;2023-01-29T09:23:22;4.10;99.90
21834;DHT22;11079;51.092;3.458;2023-01-29T09:25:48;4.10;99.90
21834;DHT22;11079;51.092;3.458;2023-01-29T09:28:14;4.10;99.90
21834;DHT22;11079;51.092;3.458;2023-01-29T09:30:42;4.10;99.90
21834;DHT22;11079;51.092;3.458;2023-01-29T09:33:08;4.00;99.90
21834;DHT22;11079;51.092;3.458;2023-01-29T09:35:34;4.10;99.90
21834;DHT22;11079;51.092;3.458;2023-01-29T09:38:00;4.30;99.90
21834;DHT22;11079;51.092;3.458;2023-01-29T09:43:41;4.40;99.90
21834;DHT22;11079;51.092;3.458;2023-01-29T09:46:34;4.40;99.90
21834;DHT22;11079;51.092;3.458;2023-01-29T09:51:48;4.30;99.90
21834;DHT22;11079;51.092;3.458;2023-01-29T09:54:27;4.30;99.90
21834;DHT22;11079;51.092;3.458;2023-01-29T09:56:55;4.40;99.90
21834;DHT22;11079;51.092;3.458;2023-01-29T09:59:23;4.50;99.90
21834;DHT22;11079;51.092;3.458;2023-01-29T10:23:17;5.60;99.90
21834;DHT22;11079;51.092;3.458;2023-01-29T10:25:46;5.60;99.90
21834;DHT22;11079;51.092;3.458;2023-01-29T10:28:37;5.70;99.90
21834;DHT22;11079;51.092;3.458;2023-01-29T10:31:07;5.50;99.90
21834;DHT22;11079;51.092;3.458;2023-01-29T10:33:40;5.60;99.90
21834;DHT22;11079;51.092;3.458;2023-01-29T10:36:15;5.60;99.90
21834;DHT22;11079;51.092;3.458;2023-01-29T10:38:46;5.50;99.90
21834;DHT22;11079;51.092;3.458;2023-01-29T10:44:19;5.80;99.90
21834;DHT22;11079;51.092;3.458;2023-01-29T10:47:01;5.60;99.90
21834;DHT22;11079;51.092;3.458;2023-01-29T10:50:02;5.50;99.90
21834;DHT22;11079;51.092;3.458;2023-01-29T11:00:57;5.50;99.90
21834;DHT22;11079;51.092;3.458;2023-01-29T11:03:24;5.70;99.90
21834;DHT22;11079;51.092;3.458;2023-01-29T11:05:58;5.80;99.90
21834;DHT22;11079;51.092;3.458;2023-01-29T11:08:33;5.90;99.90
21834;DHT22;11079;51.092;3.458;2023-01-29T11:11:14;6.00;99.90
21834;DHT22;11079;51.092;3.458;2023-01-29T11:16:10;6.40;99.90
21834;DHT22;11079;51.092;3.458;2023-01-29T11:18:54;6.20;99.90
21834;DHT22;11079;51.092;3.458;2023-01-29T11:21:21;6.40;99.90
21834;DHT22;11079;51.092;3.458;2023-01-29T11:23:47;6.50;99.90
21834;DHT22;11079;51.092;3.458;2023-01-29T11:26:18;6.30;99.90
21834;DHT22;11079;51.092;3.458;2023-01-29T11:28:47;6.00;99.90
21834;DHT22;11079;51.092;3.458;2023-01-29T11:31:17;5.80;99.90
21834;DHT22;11079;51.092;3.458;2023-01-29T11:33:44;5.60;99.90
21834;DHT22;11079;51.092;3.458;2023-01-29T11:36:26;5.70;99.90
21834;DHT22;11079;51.092;3.458;2023-01-29T11:39:19;5.90;99.90
21834;DHT22;11079;51.092;3.458;2023-01-29T11:41:53;5.90;99.90
21834;DHT22;11079;51.092;3.458;2023-01-29T11:44:28;6.10;99.90
21834;DHT22;11079;51.092;3.458;2023-01-29T11:46:56;6.30;99.90
21834;DHT22;11079;51.092;3.458;2023-01-29T11:49:30;6.20;99.90
21834;DHT22;11079;51.092;3.458;2023-01-29T11:51:59;6.20;99.90
21834;DHT22;11079;51.092;3.458;2023-01-29T11:54:30;6.50;99.90
21834;DHT22;11079;51.092;3.458;2023-01-29T11:56:57;6.60;99.90
21834;DHT22;11079;51.092;3.458;2023-01-29T12:04:45;6.80;99.90
21834;DHT22;11079;51.092;3.458;2023-01-29T12:07:13;7.00;99.90
21834;DHT22;11079;51.092;3.458;2023-01-29T12:09:40;7.10;99.90
21834;DHT22;11079;51.092;3.458;2023-01-29T12:15:14;6.80;99.90
21834;DHT22;11079;51.092;3.458;2023-01-29T12:17:44;6.90;99.90
21834;DHT22;11079;51.092;3.458;2023-01-29T12:20:16;6.90;99.90
21834;DHT22;11079;51.092;3.458;2023-01-29T12:26:05;7.10;99.90
21834;DHT22;11079;51.092;3.458;2023-01-29T12:28:58;7.20;99.90
21834;DHT22;11079;51.092;3.458;2023-01-29T12:31:39;7.10;99.90
21834;DHT22;11079;51.092;3.458;2023-01-29T12:39:47;7.30;99.90
21834;DHT22;11079;51.092;3.458;2023-01-29T12:42:19;7.30;99.90
21834;DHT22;11079;51.092;3.458;2023-01-29T12:44:55;7.50;99.90
21834;DHT22;11079;51.092;3.458;2023-01-29T12:47:30;7.60;99.90
21834;DHT22;11079;51.092;3.458;2023-01-29T12:50:21;7.70;99.90
21834;DHT22;11079;51.092;3.458;2023-01-29T12:52:58;7.50;99.90
21834;DHT22;11079;51.092;3.458;2023-01-29T12:55:29;7.30;99.90
21834;DHT22;11079;51.092;3.458;2023-01-29T12:58:00;7.30;99.90
21834;DHT22;11079;51.092;3.458;2023-01-29T13:00:37;7.40;99.90
21834;DHT22;11079;51.092;3.458;2023-01-29T13:03:16;7.20;99.90
21834;DHT22;11079;51.092;3.458;2023-01-29T13:05:59;7.30;99.90
21834;DHT22;11079;51.092;3.458;2023-01-29T13:08:29;7.50;99.90
21834;DHT22;11079;51.092;3.458;2023-01-29T13:10:57;7.50;99.90
21834;DHT22;11079;51.092;3.458;2023-01-29T13:14:08;7.30;99.90
21834;DHT22;11079;51.092;3.458;2023-01-29T13:16:41;7.30;99.90
21834;DHT22;11079;51.092;3.458;2023-01-29T13:19:23;7.10;99.90
21834;DHT22;11079;51.092;3.458;2023-01-29T13:21:53;7.10;99.90
21834;DHT22;11079;51.092;3.458;2023-01-29T13:24:23;7.30;99.90
21834;DHT22;11079;51.092;3.458;2023-01-29T13:26:49;7.20;99.90
21834;DHT22;11079;51.092;3.458;2023-01-29T13:29:25;7.40;99.90
21834;DHT22;11079;51.092;3.458;2023-01-29T13:31:54;7.30;99.90
21834;DHT22;11079;51.092;3.458;2023-01-29T13:34:27;7.30;99.90
21834;DHT22;11079;51.092;3.458;2023-01-29T13:36:55;7.20;99.90
21834;DHT22;11079;51.092;3.458;2023-01-29T13:41:57;7.30;99.90
21834;DHT22;11079;51.092;3.458;2023-01-29T13:46:56;7.30;99.90
21834;DHT22;11079;51.092;3.458;2023-01-29T13:49:29;7.20;99.90
21834;DHT22;11079;51.092;3.458;2023-01-29T13:51:58;7.20;99.90
21834;DHT22;11079;51.092;3.458;2023-01-29T13:54:38;7.00;99.90
21834;DHT22;11079;51.092;3.458;2023-01-29T13:57:04;7.10;99.90
21834;DHT22;11079;51.092;3.458;2023-01-29T13:59:51;7.00;99.90
21834;DHT22;11079;51.092;3.458;2023-01-29T14:02:28;7.00;99.90
21834;DHT22;11079;51.092;3.458;2023-01-29T14:10:22;6.80;99.90
21834;DHT22;11079;51.092;3.458;2023-01-29T14:12:52;6.80;99.90
21834;DHT22;11079;51.092;3.458;2023-01-29T14:15:21;7.00;99.90
21834;DHT22;11079;51.092;3.458;2023-01-29T14:17:55;6.80;99.90
21834;DHT22;11079;51.092;3.458;2023-01-29T14:20:33;6.80;99.90
21834;DHT22;11079;51.092;3.458;2023-01-29T14:23:00;6.60;99.90
21834;DHT22;11079;51.092;3.458;2023-01-29T14:25:33;6.50;99.90
21834;DHT22;11079;51.092;3.458;2023-01-29T14:28:02;6.20;99.90
21834;DHT22;11079;51.092;3.458;2023-01-29T14:30:33;6.20;99.90
21834;DHT22;11079;51.092;3.458;2023-01-29T14:33:00;6.40;99.90
21834;DHT22;11079;51.092;3.458;2023-01-29T14:35:28;6.70;99.90
21834;DHT22;11079;51.092;3.458;2023-01-29T14:38:03;6.70;99.90
21834;DHT22;11079;51.092;3.458;2023-01-29T14:40:31;6.70;99.90
21834;DHT22;11079;51.092;3.458;2023-01-29T14:43:07;6.70;99.90
21834;DHT22;11079;51.092;3.458;2023-01-29T14:45:35;6.70;99.90
21834;DHT22;11079;51.092;3.458;2023-01-29T14:51:26;6.50;99.90
21834;DHT22;11079;51.092;3.458;2023-01-29T14:54:23;6.60;99.90
21834;DHT22;11079;51.092;3.458;2023-01-29T14:56:59;6.60;99.90
21834;DHT22;11079;51.092;3.458;2023-01-29T14:59:31;6.60;99.90
21834;DHT22;11079;51.092;3.458;2023-01-29T15:02:03;6.60;99.90
21834;DHT22;11079;51.092;3.458;2023-01-29T15:04:36;6.40;99.90
21834;DHT22;11079;51.092;3.458;2023-01-29T15:15:04;6.10;99.90
21834;DHT22;11079;51.092;3.458;2023-01-29T15:20:29;5.90;99.90
21834;DHT22;11079;51.092;3.458;2023-01-29T15:22:55;5.90;99.90
21834;DHT22;11079;51.092;3.458;2023-01-29T15:25:21;6.00;99.90
21834;DHT22;11079;51.092;3.458;2023-01-29T15:27:47;6.00;99.90
21834;DHT22;11079;51.092;3.458;2023-01-29T15:30:19;6.00;99.90
21834;DHT22;11079;51.092;3.458;2023-01-29T15:32:47;5.90;99.90
21834;DHT22;11079;51.092;3.458;2023-01-29T15:35:27;6.10;99.90
21834;DHT22;11079;51.092;3.458;2023-01-29T15:38:00;6.00;99.90
21834;DHT22;11079;51.092;3.458;2023-01-29T15:40:28;6.00;99.90
21834;DHT22;11079;51.092;3.458;2023-01-29T15:42:54;6.00;99.90
21834;DHT22;11079;51.092;3.458;2023-01-29T15:45:29;6.00;99.90
21834;DHT22;11079;51.092;3.458;2023-01-29T15:48:10;6.10;99.90
21834;DHT22;11079;51.092;3.458;2023-01-29T15:50:40;6.00;99.90
21834;DHT22;11079;51.092;3.458;2023-01-29T15:53:13;5.90;99.90
21834;DHT22;11079;51.092;3.458;2023-01-29T15:55:40;5.80;99.90
21834;DHT22;11079;51.092;3.458;2023-01-29T15:58:15;5.90;99.90
21834;DHT22;11079;51.092;3.458;2023-01-29T16:00:48;5.80;99.90
21834;DHT22;11079;51.092;3.458;2023-01-29T16:03:15;5.70;99.90
21834;DHT22;11079;51.092;3.458;2023-01-29T16:05:41;5.80;99.90
21834;DHT22;11079;51.092;3.458;2023-01-29T16:08:11;5.80;99.90
21834;DHT22;11079;51.092;3.458;2023-01-29T16:10:40;5.70;99.90
21834;DHT22;11079;51.092;3.458;2023-01-29T16:13:23;5.60;99.90
21834;DHT22;11079;51.092;3.458;2023-01-29T16:16:00;5.60;99.90
21834;DHT22;11079;51.092;3.458;2023-01-29T16:18:35;5.70;99.90
21834;DHT22;11079;51.092;3.458;2023-01-29T16:21:07;5.70;99.90
21834;DHT22;11079;51.092;3.458;2023-01-29T16:23:48;5.90;99.90
21834;DHT22;11079;51.092;3.458;2023-01-29T16:26:17;5.80;99.90
21834;DHT22;11079;51.092;3.458;2023-01-29T16:28:45;5.80;99.90
21834;DHT22;11079;51.092;3.458;2023-01-29T16:31:11;5.80;99.90
21834;DHT22;11079;51.092;3.458;2023-01-29T16:33:40;5.80;99.90
21834;DHT22;11079;51.092;3.458;2023-01-29T16:36:18;5.90;99.90
21834;DHT22;11079;51.092;3.458;2023-01-29T16:38:58;5.80;99.90
21834;DHT22;11079;51.092;3.458;2023-01-29T16:41:31;6.00;99.90
21834;DHT22;11079;51.092;3.458;2023-01-29T16:43:59;5.90;99.90
21834;DHT22;11079;51.092;3.458;2023-01-29T16:48:57;5.80;99.90
21834;DHT22;11079;51.092;3.458;2023-01-29T16:51:36;5.70;99.90
21834;DHT22;11079;51.092;3.458;2023-01-29T16:54:12;5.70;99.90
21834;DHT22;11079;51.092;3.458;2023-01-29T16:56:44;5.80;99.90
21834;DHT22;11079;51.092;3.458;2023-01-29T16:59:40;5.80;99.90
21834;DHT22;11079;51.092;3.458;2023-01-29T17:02:25;5.70;99.90
21834;DHT22;11079;51.092;3.458;2023-01-29T17:04:55;5.50;99.90
21834;DHT22;11079;51.092;3.458;2023-01-29T17:07:22;5.60;99.90
21834;DHT22;11079;51.092;3.458;2023-01-29T17:09:52;5.60;99.90
21834;DHT22;11079;51.092;3.458;2023-01-29T17:12:22;5.60;99.90
21834;DHT22;11079;51.092;3.458;2023-01-29T17:17:28;5.50;99.90
21834;DHT22;11079;51.092;3.458;2023-01-29T17:19:53;5.40;99.90
21834;DHT22;11079;51.092;3.458;2023-01-29T17:22:19;5.50;99.90
21834;DHT22;11079;51.092;3.458;2023-01-29T17:24:44;5.50;99.90
21834;DHT22;11079;51.092;3.458;2023-01-29T17:27:19;5.40;99.90
21834;DHT22;11079;51.092;3.458;2023-01-29T17:29:45;5.50;99.90
21834;DHT22;11079;51.092;3.458;2023-01-29T17:32:11;5.30;99.90
21834;DHT22;11079;51.092;3.458;2023-01-29T17:34:37;5.30;99.90
21834;DHT22;11079;51.092;3.458;2023-01-29T17:37:03;5.30;99.90
21834;DHT22;11079;51.092;3.458;2023-01-29T17:39:29;5.30;99.90
21834;DHT22;11079;51.092;3.458;2023-01-29T17:41:56;5.30;99.90
21834;DHT22;11079;51.092;3.458;2023-01-29T17:44:23;5.30;99.90
21834;DHT22;11079;51.092;3.458;2023-01-29T17:46:52;5.40;99.90
21834;DHT22;11079;51.092;3.458;2023-01-29T17:49:26;5.30;99.90
21834;DHT22;11079;51.092;3.458;2023-01-29T17:51:53;5.30;99.90
21834;DHT22;11079;51.092;3.458;2023-01-29T17:54:19;5.40;99.90
21834;DHT22;11079;51.092;3.458;2023-01-29T17:56:46;5.40;99.90
21834;DHT22;11079;51.092;3.458;2023-01-29T17:59:15;5.30;99.90
21834;DHT22;11079;51.092;3.458;2023-01-29T18:01:41;5.30;99.90
21834;DHT22;11079;51.092;3.458;2023-01-29T18:04:07;5.40;99.90
21834;DHT22;11079;51.092;3.458;2023-01-29T18:06:34;5.30;99.90
21834;DHT22;11079;51.092;3.458;2023-01-29T18:09:00;5.40;99.90